| time (UTC) | temp C | wind direction | speed KPH | gust KPH | rain 1hr cm | rain 24hr cm | rain mn cm | humidity % | barometer mb |
| 20260506184538 | -17 | 123 | 4.8 | 9.7 | 0.00 | 0.00 | 0.00 | ||
| 20260506183541 | -17 | 122 | 4.8 | 9.7 | 0.00 | 0.00 | 0.00 | ||
| 20260506182534 | -17 | 118 | 6.4 | 9.7 | 0.00 | 0.00 | 0.00 | ||
| 20260506181518 | -17 | 106 | 6.4 | 8.0 | 0.00 | 0.00 | 0.00 | ||
| 20260506180636 | -17 | 100 | 8.0 | 9.7 | 0.00 | 0.00 | 0.00 | ||
| 20260506175542 | -17 | 101 | 8.0 | 9.7 | 0.00 | 0.00 | 0.00 | ||
| 20260506174600 | -17 | 97 | 9.7 | 12.9 | 0.00 | 0.00 | 0.00 | ||
| 20260506173538 | -17 | 112 | 8.0 | 9.7 | 0.00 | 0.00 | 0.00 | ||
| 20260506172536 | -17 | 112 | 9.7 | 12.9 | 0.00 | 0.00 | 0.00 | ||
| 20260506171534 | -17 | 105 | 9.7 | 12.9 | 0.00 | 0.00 | 0.00 | ||
| 20260506170518 | -17 | 101 | 9.7 | 12.9 | 0.00 | 0.00 | 0.00 | ||
| 20260506165536 | -17 | 97 | 9.7 | 12.9 | 0.00 | 0.00 | 0.00 | ||
| 20260506164542 | -17 | 108 | 9.7 | 11.3 | 0.00 | 0.00 | 0.00 | ||
| 20260506163540 | -17 | 114 | 9.7 | 14.5 | 0.00 | 0.00 | 0.00 | ||
| 20260506162538 | -17 | 104 | 11.3 | 14.5 | 0.00 | 0.00 | 0.00 | ||
| 20260506161536 | -17 | 105 | 9.7 | 14.5 | 0.00 | 0.00 | 0.00 | ||
| 20260506160540 | -17 | 104 | 9.7 | 16.1 | 0.00 | 0.00 | 0.00 | ||
| 20260506155518 | -17 | 108 | 11.3 | 12.9 | 0.00 | 0.00 | 0.00 | ||
| 20260506154516 | -17 | 106 | 11.3 | 14.5 | 0.00 | 0.00 | 0.00 | ||
| 20260506153542 | -17 | 109 | 12.9 | 19.3 | 0.00 | 0.00 | 0.00 | ||
| 20260506152540 | -17 | 107 | 11.3 | 16.1 | 0.00 | 0.00 | 0.00 | ||
| 20260506151538 | -17 | 109 | 11.3 | 17.7 | 0.00 | 0.00 | 0.00 | ||
| 20260506150536 | -17 | 104 | 11.3 | 14.5 | 0.00 | 0.00 | 0.00 | ||
| 20260506145520 | -17 | 108 | 11.3 | 17.7 | 0.00 | 0.00 | 0.00 | ||
| 20260506144518 | -17 | 106 | 11.3 | 17.7 | 0.00 | 0.00 | 0.00 | ||
| 20260506143515 | -17 | 108 | 8.0 | 14.5 | 0.00 | 0.00 | 0.00 | ||
| 20260506142541 | -17 | 129 | 4.8 | 14.5 | 0.00 | 0.00 | 0.00 | ||
| 20260506141539 | -17 | 130 | 4.8 | 9.7 | 0.00 | 0.00 | 0.00 | ||
| 20260506140538 | -17 | 126 | 8.0 | 16.1 | 0.00 | 0.00 | 0.00 | ||
| 20260506135536 | -17 | 125 | 6.4 | 12.9 | 0.00 | 0.00 | 0.00 | ||
| 20260506134520 | -17 | 108 | 9.7 | 17.7 | 0.00 | 0.00 | 0.00 | ||
| 20260506133518 | -17 | 100 | 6.4 | 12.9 | 0.00 | 0.00 | 0.00 | ||
| 20260506132516 | -17 | 111 | 8.0 | 12.9 | 0.00 | 0.00 | 0.00 | ||
| 20260506131542 | -17 | 119 | 11.3 | 19.3 | 0.00 | 0.00 | 0.00 | ||
| 20260506130539 | -17 | 117 | 8.0 | 12.9 | 0.00 | 0.00 | 0.00 | ||
| 20260506125537 | -17 | 123 | 8.0 | 12.9 | 0.00 | 0.00 | 0.00 | ||
| 20260506124535 | -17 | 120 | 9.7 | 12.9 | 0.00 | 0.00 | 0.00 | ||
| 20260506123520 | -17 | 122 | 11.3 | 17.7 | 0.00 | 0.00 | 0.00 | ||
| 20260506122517 | -17 | 104 | 6.4 | 14.5 | 0.00 | 0.00 | 0.00 | ||
| 20260506121515 | -17 | 115 | 6.4 | 16.1 | 0.00 | 0.00 | 0.00 | ||
| 20260506120541 | -17 | 148 | 1.6 | 6.4 | 0.00 | 0.00 | 0.00 | ||
| 20260506115620 | -17 | 135 | 0.0 | 6.4 | 0.00 | 0.00 | 0.00 | ||
| 20260506114558 | -17 | 123 | 12.9 | 20.9 | 0.00 | 0.00 | 0.00 | ||
| 20260506113535 | -17 | 110 | 11.3 | 17.7 | 0.00 | 0.00 | 0.00 | ||
| 20260506112520 | -17 | 91 | 11.3 | 16.1 | 0.00 | 0.00 | 0.00 | ||
| 20260506111518 | -17 | 101 | 9.7 | 12.9 | 0.00 | 0.00 | 0.00 | ||
| 20260506110515 | -17 | 120 | 6.4 | 11.3 | 0.00 | 0.00 | 0.00 | ||
| 20260506105541 | -17 | 113 | 3.2 | 8.0 | 0.00 | 0.00 | 0.00 | ||
| 20260506104539 | -17 | 223 | 3.2 | 9.7 | 0.00 | 0.00 | 0.00 | ||
| 20260506103538 | -17 | 224 | 0.0 | 6.4 | 0.00 | 0.00 | 0.00 | ||
| 20260506102535 | -17 | 98 | 3.2 | 8.0 | 0.00 | 0.00 | 0.00 | ||
| 20260506101519 | -17 | 118 | 4.8 | 12.9 | 0.00 | 0.00 | 0.00 | ||
| 20260506100537 | -17 | 117 | 3.2 | 9.7 | 0.00 | 0.00 | 0.00 | ||
| 20260506095515 | -17 | 96 | 0.0 | 8.0 | 0.00 | 0.00 | 0.00 | ||
| 20260506094541 | -17 | 99 | 3.2 | 12.9 | 0.00 | 0.00 | 0.00 | ||
| 20260506093540 | -17 | 97 | 6.4 | 12.9 | 0.00 | 0.00 | 0.00 | ||
| 20260506092538 | -17 | 92 | 1.6 | 11.3 | 0.00 | 0.00 | 0.00 | ||
| 20260506091535 | -17 | 114 | 8.0 | 12.9 | 0.00 | 0.00 | 0.00 | ||
| 20260506090520 | -17 | 108 | 0.0 | 8.0 | 0.00 | 0.00 | 0.00 | ||
| 20260506085517 | -17 | 95 | 3.2 | 9.7 | 0.00 | 0.00 | 0.00 | ||
| 20260506084515 | -17 | 93 | 1.6 | 6.4 | 0.00 | 0.00 | 0.00 | ||
| 20260506083541 | -17 | 126 | 0.0 | 4.8 | 0.00 | 0.00 | 0.00 | ||
| 20260506082539 | -17 | 0.0 | 4.8 | 0.00 | 0.00 | 0.00 | |||
| 20260506081537 | -17 | 0.0 | 4.8 | 0.00 | 0.00 | 0.00 | |||
| 20260506080536 | -17 | 0.0 | 0.0 | 0.00 | 0.00 | 0.00 | |||
| 20260506073515 | -17 | 0.0 | 8.0 | 0.00 | 0.00 | 0.00 | |||
| 20260506072542 | -17 | 0.0 | 0.0 | 0.00 | 0.00 | 0.00 | |||
| 20260506071559 | -17 | 280 | 0.0 | 8.0 | 0.00 | 0.00 | 0.00 | ||
| 20260506070538 | -17 | 0.0 | 9.7 | 0.00 | 0.00 | 0.00 | |||
| 20260506062515 | -17 | 0.0 | 0.0 | 0.00 | 0.00 | 0.00 | |||
| 20260506061541 | -17 | 0.0 | 0.0 | 0.00 | 0.00 | 0.00 | |||
| 20260506060559 | -17 | 0.0 | 0.0 | 0.00 | 0.00 | 0.00 | |||
| 20260506050541 | -17 | 0.0 | 0.0 | 0.00 | 0.00 | 0.00 | |||
| 20260506044537 | -17 | 0.0 | 0.0 | 0.00 | 0.00 | 0.00 | |||
| 20260506043555 | -17 | 0.0 | 0.0 | 0.00 | 0.00 | 0.00 | |||
| 20260506042519 | -17 | 0.0 | 0.0 | 0.00 | 0.00 | 0.00 | |||
| 20260506041517 | -17 | 0.0 | 0.0 | 0.00 | 0.00 | 0.00 | |||
| 20260506040555 | -17 | 0.0 | 0.0 | 0.00 | 0.00 | 0.00 | |||
| 20260506035541 | -17 | 0.0 | 0.0 | 0.00 | 0.00 | 0.00 | |||
| 20260506034559 | -17 | 0.0 | 0.0 | 0.00 | 0.00 | 0.00 | |||
| 20260506033537 | -17 | 0.0 | 0.0 | 0.00 | 0.00 | 0.00 | |||
| 20260506032535 | -17 | 0.0 | 0.0 | 0.00 | 0.00 | 0.00 | |||
| 20260506031519 | -17 | 0.0 | 0.0 | 0.00 | 0.00 | 0.00 | |||
| 20260506030517 | -17 | 0.0 | 0.0 | 0.00 | 0.00 | 0.00 | |||
| 20260506025515 | -17 | 0.0 | 0.0 | 0.00 | 0.00 | 0.00 | |||
| 20260506024601 | -17 | 0.0 | 0.0 | 0.00 | 0.00 | 0.00 | |||
| 20260506023539 | -17 | 0.0 | 0.0 | 0.00 | 0.00 | 0.00 | |||
| 20260506022537 | -17 | 0.0 | 0.0 | 0.00 | 0.00 | 0.00 | |||
| 20260506021535 | -17 | 0.0 | 0.0 | 0.00 | 0.00 | 0.00 | |||
| 20260506020519 | -17 | 0.0 | 0.0 | 0.00 | 0.00 | 0.00 | |||
| 20260506015517 | -17 | 0.0 | 0.0 | 0.00 | 0.00 | 0.00 | |||
| 20260506014515 | -17 | 0.0 | 4.8 | 0.00 | 0.00 | 0.00 | |||
| 20260506013621 | -17 | 0.0 | 0.0 | 0.00 | 0.00 | 0.00 | |||
| 20260506012539 | -17 | 0.0 | 0.0 | 0.00 | 0.00 | 0.00 | |||
| 20260506011537 | -17 | 0.0 | 0.0 | 0.00 | 0.00 | 0.00 | |||
| 20260506010535 | -17 | 0.0 | 0.0 | 0.00 | 0.00 | 0.00 | |||
| 20260506005519 | -17 | 0.0 | 0.0 | 0.00 | 0.00 | 0.00 | |||
| 20260506004517 | -17 | 0.0 | 0.0 | 0.00 | 0.00 | 0.00 | |||
| 20260506003515 | -17 | 0.0 | 0.0 | 0.00 | 0.00 | 0.00 | |||
| 20260506002541 | -17 | 0.0 | 6.4 | 0.00 | 0.00 | 0.00 | |||
| 20260506001539 | -17 | 0.0 | 4.8 | 0.00 | 0.00 | 0.00 | |||
| 20260506000537 | -17 | 0.0 | 6.4 | 0.00 | 0.00 | 0.00 | |||
| 20260505235535 | -17 | 0.0 | 0.0 | 0.00 | 0.00 | 0.00 | |||
| 20260505234519 | -17 | 0.0 | 0.0 | 0.00 | 0.00 | 0.00 | |||
| 20260505233517 | -17 | 0.0 | 0.0 | 0.00 | 0.00 | 0.00 | |||
| 20260505232515 | -17 | 0.0 | 0.0 | 0.00 | 0.00 | 0.00 | |||
| 20260505231541 | -17 | 0.0 | 0.0 | 0.00 | 0.00 | 0.00 | |||
| 20260505230539 | -17 | 265 | 3.2 | 8.0 | 0.00 | 0.00 | 0.00 | ||
| 20260505225537 | -17 | 272 | 1.6 | 6.4 | 0.00 | 0.00 | 0.00 | ||
| 20260505224555 | -17 | 0.0 | 6.4 | 0.00 | 0.00 | 0.00 | |||
| 20260505223519 | -17 | 286 | 1.6 | 8.0 | 0.00 | 0.00 | 0.00 | ||
| 20260505222517 | -17 | 264 | 3.2 | 6.4 | 0.00 | 0.00 | 0.00 | ||
| 20260505221515 | -17 | 264 | 1.6 | 6.4 | 0.00 | 0.00 | 0.00 | ||
| 20260505220541 | -17 | 262 | 4.8 | 9.7 | 0.00 | 0.00 | 0.00 | ||
| 20260505215539 | -17 | 261 | 6.4 | 9.7 | 0.00 | 0.00 | 0.00 | ||
| 20260505214537 | -17 | 255 | 4.8 | 9.7 | 0.00 | 0.00 | 0.00 | ||
| 20260505213555 | -17 | 256 | 6.4 | 11.3 | 0.00 | 0.00 | 0.00 | ||
| 20260505212519 | -17 | 239 | 4.8 | 11.3 | 0.00 | 0.00 | 0.00 | ||
| 20260505211517 | -17 | 250 | 8.0 | 9.7 | 0.00 | 0.00 | 0.00 | ||
| 20260505210515 | -17 | 236 | 9.7 | 12.9 | 0.00 | 0.00 | 0.00 | ||
| 20260505205541 | -17 | 237 | 8.0 | 12.9 | 0.00 | 0.00 | 0.00 | ||
| 20260505204539 | -17 | 235 | 8.0 | 11.3 | 0.00 | 0.00 | 0.00 | ||
| 20260505203557 | -17 | 0.0 | 8.0 | 0.00 | 0.00 | 0.00 | |||
| 20260505202535 | -17 | 224 | 4.8 | 12.9 | 0.00 | 0.00 | 0.00 | ||
| 20260505201519 | -17 | 200 | 8.0 | 12.9 | 0.00 | 0.00 | 0.00 | ||
| 20260505200517 | -17 | 198 | 8.0 | 9.7 | 0.00 | 0.00 | 0.00 | ||
| 20260505195535 | -17 | 222 | 9.7 | 12.9 | 0.00 | 0.00 | 0.00 | ||
| 20260505194601 | -17 | 224 | 11.3 | 16.1 | 0.00 | 0.00 | 0.00 | ||
| 20260505193539 | -17 | 231 | 11.3 | 14.5 | 0.00 | 0.00 | 0.00 | ||
| 20260505192537 | -17 | 227 | 12.9 | 17.7 | 0.00 | 0.00 | 0.00 | ||
| 20260505191600 | -17 | 226 | 11.3 | 14.5 | 0.00 | 0.00 | 0.00 | ||
| 20260505190519 | -17 | 246 | 9.7 | 12.9 | 0.00 | 0.00 | 0.00 | ||
| 20260505185557 | -17 | 0.0 | 0.0 | 0.00 | 0.00 | 0.00 |